Index of /Circuits/Power

[ICO]NameLast modifiedSizeDescription

[DIR]Parent Directory  -  
[IMG]solar_shunt_charger.png25-Nov-2015 17:09 6.6K 
[TXT]solar_charger.htm25-Nov-2015 17:09 3.2K 
[TXT]undervoltage.htm25-Nov-2015 14:46 5.9K 
[TXT]clps.htm25-Nov-2015 14:46 3.2K 
[TXT]mainsfilter.htm25-Nov-2015 14:46 12K 
[TXT]overvolt.htm25-Nov-2015 14:46 4.1K 
[TXT]add-on.htm25-Nov-2015 14:46 4.6K 
[TXT]powerzener.htm25-Nov-2015 14:46 3.7K 
[TXT]gyrator.htm25-Nov-2015 14:46 3.1K 
[TXT]oafc.htm25-Nov-2015 14:46 2.5K 
[TXT]rf_psu.htm25-Nov-2015 14:46 6.0K 
[TXT]dualreg.htm25-Nov-2015 14:46 1.7K 
[TXT]vpsu.htm25-Nov-2015 14:46 3.9K 
[TXT]psu.htm25-Nov-2015 14:46 2.0K 
[TXT]1230psu.htm25-Nov-2015 14:46 9.5K 
[TXT]gyrator1.htm25-Nov-2015 14:46 3.2K 
[TXT]adjpswc.htm25-Nov-2015 14:46 2.2K 
[TXT]723psu.htm25-Nov-2015 14:46 3.8K 
[TXT]fusemon.htm25-Nov-2015 14:46 2.1K 
[TXT]l200.htm25-Nov-2015 14:46 4.1K 
[TXT]1220.htm25-Nov-2015 14:46 5.5K 
[TXT]pfa.htm25-Nov-2015 14:46 2.8K 
[TXT]multiconv.htm25-Nov-2015 14:46 2.4K 
[TXT]9v2a.htm25-Nov-2015 14:46 2.0K 
[TXT]svind.htm25-Nov-2015 14:46 3.1K 
[TXT]tps.htm25-Nov-2015 14:46 5.4K 
[TXT]boosti.htm25-Nov-2015 14:46 3.6K 
[TXT]dcdc_con.htm25-Nov-2015 14:46 4.6K 
[TXT]vvr.htm25-Nov-2015 14:46 1.8K 
[TXT]3730.htm25-Nov-2015 14:46 5.4K 
[TXT]ups.htm25-Nov-2015 14:46 5.4K 
[TXT]nicad.htm25-Nov-2015 14:46 2.5K 
[TXT]car_conv.htm25-Nov-2015 14:46 4.0K 
[TXT]universalpsu.htm25-Nov-2015 14:46 1.7K 
[TXT]fuse.htm25-Nov-2015 14:46 3.9K 
[TXT]13v820a.htm25-Nov-2015 14:46 5.8K 
[TXT]softstart.htm25-Nov-2015 14:46 2.3K 
[TXT]1v3.htm25-Nov-2015 14:46 3.3K 
[TXT]alarm_psu.htm25-Nov-2015 14:46 3.0K 
[TXT]power.html25-Nov-2015 14:46 5.8K 
[TXT]l200var.htm25-Nov-2015 14:46 2.0K 
[TXT]lm317.htm25-Nov-2015 14:46 3.7K 
[TXT]unreg.htm25-Nov-2015 14:46 2.7K 
[DIR]1230s/15-Nov-2012 22:51 -  
[IMG]nicad_simulation.png04-Feb-2012 10:36 8.7K 
[IMG]nicad_voltage.png04-Feb-2012 10:36 14K 
[IMG]nicad_current.png04-Feb-2012 10:36 12K 
[DIR]1230l/30-Jan-2012 18:23 -  
[   ]undervoltage.zip29-Jan-2012 00:18 737  
[IMG]underV_plot.png28-Jan-2012 19:41 6.9K 
[IMG]underV_sch.png28-Jan-2012 19:41 29K 
[IMG]compactEMIfilter.jpg09-Oct-2011 09:26 104K 
[IMG]mainsfilter-in-situs.jpg09-Oct-2011 09:26 7.3K 
[IMG]compactEMIfilters.jpg09-Oct-2011 09:26 10K 
[IMG]mainsfilter-in-situ.jpg09-Oct-2011 09:26 79K 
[IMG]mains_lpf1.jpg08-Oct-2011 09:52 105K 
[   ]ring1.xar08-Oct-2011 09:49 3.4K 
[IMG]mainsfilter.png08-Oct-2011 09:49 55K 
[IMG]filter.png26-Sep-2011 20:07 15K 
[IMG]mech_timer.png12-Sep-2011 20:58 39K 
[IMG]rf_psu.png08-Sep-2011 06:53 20K 
[IMG]toroidal-transformer.jpg18-Aug-2011 20:43 15K 
[IMG]ft82-43.jpg30-Jul-2011 21:49 4.5K 
[IMG]3730.png03-May-2011 20:52 127K 
[DIR]37v30/03-May-2011 20:52 -  
[IMG]reg14.4wh.png25-Nov-2010 11:30 33K 
[IMG]psu2.jpg20-Oct-2010 21:23 41K 
[IMG]psu1.jpg20-Oct-2010 21:23 45K 
[IMG]psu4.jpg20-Oct-2010 21:23 41K 
[IMG]psu3.jpg20-Oct-2010 21:23 38K 
[IMG]psu5.jpg20-Oct-2010 21:23 37K 
[IMG]power_zener_cct.png07-Aug-2010 22:22 32K 
[IMG]power_zener_diss.png07-Aug-2010 22:22 9.7K 
[IMG]power_zener.png07-Aug-2010 22:22 11K 
[IMG]overvolt_mk2.gif16-May-2010 18:05 14K 
[IMG]powerfail.png22-Feb-2010 22:06 6.6K 
[IMG]powerzener.png10-Feb-2010 22:09 11K 
[IMG]reg12.3.png29-Jan-2010 15:59 5.4K 
[IMG]12v20asim.png29-Jan-2010 15:59 7.4K 
[   ]12v20a.zip29-Jan-2010 15:59 6.6K 
[IMG]reg14.4.png29-Jan-2010 15:59 5.4K 
[IMG]12v20a.png29-Jan-2010 12:35 32K 
[IMG]multiconv.png11-Jan-2010 22:44 12K 
[IMG]boosti.gif26-Dec-2009 10:59 7.5K 
[IMG]nicad.gif14-Mar-2009 09:15 9.7K 
[IMG]fusemon.gif14-Mar-2009 09:15 7.0K 
[IMG]unregpsu.gif14-Mar-2009 09:15 2.9K 
[IMG]dcdchi.gif14-Mar-2009 09:15 14K 
[IMG]L200.gif14-Mar-2009 09:15 14K 
[IMG]L200var.gif14-Mar-2009 09:15 9.4K 
[IMG]ripple.png08-Mar-2009 20:46 4.9K 
[   ]psu13v8.pdf08-Mar-2009 20:46 456K 
[IMG]dcdc_cct.gif08-Mar-2009 20:46 7.3K 
[IMG]Tinadiag.gif08-Mar-2009 20:46 8.3K 
[IMG]poffv.gif08-Mar-2009 20:45 6.4K 
[IMG]liml.png08-Mar-2009 20:45 9.4K 
[IMG]fuse.gif08-Mar-2009 20:45 11K 
[IMG]upsu_bk_sm.jpg08-Mar-2009 20:45 60K 
[IMG]mobileradios.jpg08-Mar-2009 20:45 38K 
[IMG]ups.gif08-Mar-2009 20:45 6.0K 
[IMG]reg.gif08-Mar-2009 20:45 4.9K 
[IMG]vpsu.gif08-Mar-2009 20:45 18K 
[IMG]panel.jpg08-Mar-2009 20:45 23K 
[IMG]universalpsu.gif08-Mar-2009 20:45 84K 
[IMG]lm317reg.gif08-Mar-2009 20:45 1.4K 
[IMG]batt_connections.jpg08-Mar-2009 20:45 28K 
[IMG]svind.gif08-Mar-2009 20:45 7.9K 
[IMG]dualreg.gif08-Mar-2009 20:45 3.9K 
[IMG]clps.png08-Mar-2009 20:45 16K 
[IMG]TPS.gif08-Mar-2009 20:45 11K 
[IMG]softstart2.gif08-Mar-2009 20:45 8.4K 
[IMG]outsideview.jpg08-Mar-2009 20:45 27K 
[IMG]lm317ov.gif08-Mar-2009 20:45 3.1K 
[IMG]clps_psnel.png08-Mar-2009 20:45 10K 
[   ]l200.pdf08-Mar-2009 20:45 284K 
[IMG]upsu_is_sm.jpg08-Mar-2009 20:45 51K 
[IMG]fan7554.gif08-Mar-2009 20:45 12K 
[IMG]softstart1.gif08-Mar-2009 20:45 13K 
[IMG]723.jpg08-Mar-2009 20:45 77K 
[IMG]723.gif08-Mar-2009 20:45 7.7K 
[IMG]upsu_fr_sm.jpg08-Mar-2009 20:45 54K 
[IMG]upsu_fr_la.jpg08-Mar-2009 20:45 166K 
[IMG]overvoltage.gif08-Mar-2009 20:45 4.2K 
[IMG]gyrator.gif08-Mar-2009 20:45 7.0K 
[IMG]dc_transfer.gif08-Mar-2009 20:45 4.5K 
[IMG]13v820a.gif08-Mar-2009 20:45 9.7K 
[IMG]reg_ov.gif08-Mar-2009 20:45 2.2K 
[IMG]30apsuvoltages.png08-Mar-2009 20:45 6.5K 
[IMG]30ampcct.gif08-Mar-2009 20:45 14K 
[IMG]eqn2.gif08-Mar-2009 20:45 1.7K 
[IMG]clps_jay.png08-Mar-2009 20:45 15K 
[IMG]adjpsu.gif08-Mar-2009 20:45 4.3K 
[IMG]30ampreg.gif08-Mar-2009 20:45 6.3K 
[IMG]basic.png08-Mar-2009 20:45 8.7K 
[IMG]Pwr.png08-Mar-2009 20:45 10K 
[IMG]9v2a.gif08-Mar-2009 20:45 3.9K 
[IMG]output_reg.gif08-Mar-2009 20:45 5.2K 
[IMG]lalrm.png08-Mar-2009 20:45 9.4K 
[IMG]12v30a.png08-Mar-2009 20:45 12K 
[   ]fan7554.pdf08-Mar-2009 20:45 15K 
[IMG]VvR.gif08-Mar-2009 20:45 12K 
[IMG]Pwr_lay.png08-Mar-2009 20:45 14K 
[IMG]insideview.jpg08-Mar-2009 20:45 28K 
[IMG]temp_dev.gif08-Mar-2009 20:45 11K 
[IMG]pov.gif08-Mar-2009 20:45 6.4K 
[IMG]overvolt.gif08-Mar-2009 20:45 5.4K 
[IMG]eqn1.gif08-Mar-2009 20:45 1.9K 
[IMG]l200.png08-Mar-2009 20:45 3.0K 
[IMG]diagram 21 .png08-Mar-2009 20:45 36K 
[IMG]adjpsupcb.gif08-Mar-2009 20:45 4.5K 
[IMG]1.3vpsu.gif08-Mar-2009 20:45 7.4K 
[IMG]unregwfm.gif08-Mar-2009 20:45 9.3K 
[IMG]pback.gif08-Mar-2009 20:45 3.7K